sensor_id;sensor_type;location;lat;lon;timestamp;temperature;humidity
8709;DHT22;4391;48.678;9.280;2024-01-25T00:01:36;9.00;99.90
8709;DHT22;4391;48.678;9.280;2024-01-25T00:04:03;9.00;99.90
8709;DHT22;4391;48.678;9.280;2024-01-25T00:06:30;9.00;99.90
8709;DHT22;4391;48.678;9.280;2024-01-25T00:08:58;9.00;99.90
8709;DHT22;4391;48.678;9.280;2024-01-25T00:11:26;9.00;99.90
8709;DHT22;4391;48.678;9.280;2024-01-25T00:13:53;8.90;99.90
8709;DHT22;4391;48.678;9.280;2024-01-25T00:16:19;8.90;99.90
8709;DHT22;4391;48.678;9.280;2024-01-25T00:18:46;8.90;99.90
8709;DHT22;4391;48.678;9.280;2024-01-25T00:21:13;9.00;99.90
8709;DHT22;4391;48.678;9.280;2024-01-25T00:23:40;9.00;99.90
8709;DHT22;4391;48.678;9.280;2024-01-25T00:26:08;8.90;99.90
8709;DHT22;4391;48.678;9.280;2024-01-25T00:28:35;9.00;99.90
8709;DHT22;4391;48.678;9.280;2024-01-25T00:31:02;9.00;99.90
8709;DHT22;4391;48.678;9.280;2024-01-25T00:33:29;9.00;99.90
8709;DHT22;4391;48.678;9.280;2024-01-25T00:35:56;9.00;99.90
8709;DHT22;4391;48.678;9.280;2024-01-25T00:38:23;9.10;99.90
8709;DHT22;4391;48.678;9.280;2024-01-25T00:40:52;9.10;99.90
8709;DHT22;4391;48.678;9.280;2024-01-25T00:43:21;9.10;99.90
8709;DHT22;4391;48.678;9.280;2024-01-25T00:45:49;9.10;99.90
8709;DHT22;4391;48.678;9.280;2024-01-25T00:48:16;9.10;99.90
8709;DHT22;4391;48.678;9.280;2024-01-25T00:50:43;9.00;99.90
8709;DHT22;4391;48.678;9.280;2024-01-25T00:53:10;9.10;99.90
8709;DHT22;4391;48.678;9.280;2024-01-25T00:55:38;9.10;99.90
8709;DHT22;4391;48.678;9.280;2024-01-25T00:58:06;9.10;99.90
8709;DHT22;4391;48.678;9.280;2024-01-25T01:00:35;9.10;99.90
8709;DHT22;4391;48.678;9.280;2024-01-25T01:03:03;9.00;1.00
8709;DHT22;4391;48.678;9.280;2024-01-25T01:05:31;9.00;1.00
8709;DHT22;4391;48.678;9.280;2024-01-25T01:07:58;9.00;1.00
8709;DHT22;4391;48.678;9.280;2024-01-25T01:10:25;9.00;1.00
8709;DHT22;4391;48.678;9.280;2024-01-25T01:12:52;9.00;1.00
8709;DHT22;4391;48.678;9.280;2024-01-25T01:15:19;9.00;1.00
8709;DHT22;4391;48.678;9.280;2024-01-25T01:17:48;9.00;1.00
8709;DHT22;4391;48.678;9.280;2024-01-25T01:20:15;9.00;1.00
8709;DHT22;4391;48.678;9.280;2024-01-25T01:22:41;8.90;99.90
8709;DHT22;4391;48.678;9.280;2024-01-25T01:25:10;8.80;99.90
8709;DHT22;4391;48.678;9.280;2024-01-25T01:27:37;8.70;99.90
8709;DHT22;4391;48.678;9.280;2024-01-25T01:30:04;8.50;1.00
8709;DHT22;4391;48.678;9.280;2024-01-25T01:32:33;8.50;1.00
8709;DHT22;4391;48.678;9.280;2024-01-25T01:35:01;8.40;1.00
8709;DHT22;4391;48.678;9.280;2024-01-25T01:37:28;8.30;1.00
8709;DHT22;4391;48.678;9.280;2024-01-25T01:39:55;8.30;1.00
8709;DHT22;4391;48.678;9.280;2024-01-25T01:42:23;8.30;1.00
8709;DHT22;4391;48.678;9.280;2024-01-25T01:44:52;8.30;1.00
8709;DHT22;4391;48.678;9.280;2024-01-25T01:47:19;8.30;1.00
8709;DHT22;4391;48.678;9.280;2024-01-25T01:49:46;8.30;1.00
8709;DHT22;4391;48.678;9.280;2024-01-25T01:52:15;8.30;1.00
8709;DHT22;4391;48.678;9.280;2024-01-25T01:54:43;8.30;1.00
8709;DHT22;4391;48.678;9.280;2024-01-25T01:57:10;8.30;1.00
8709;DHT22;4391;48.678;9.280;2024-01-25T01:59:37;8.30;1.00
8709;DHT22;4391;48.678;9.280;2024-01-25T02:02:04;8.30;1.00
8709;DHT22;4391;48.678;9.280;2024-01-25T02:04:32;8.40;1.00
8709;DHT22;4391;48.678;9.280;2024-01-25T02:06:59;8.40;1.00
8709;DHT22;4391;48.678;9.280;2024-01-25T02:09:27;8.40;1.00
8709;DHT22;4391;48.678;9.280;2024-01-25T02:12:00;8.50;1.00
8709;DHT22;4391;48.678;9.280;2024-01-25T02:14:27;8.50;1.00
8709;DHT22;4391;48.678;9.280;2024-01-25T02:16:54;8.60;1.00
8709;DHT22;4391;48.678;9.280;2024-01-25T02:19:21;8.60;1.00
8709;DHT22;4391;48.678;9.280;2024-01-25T02:21:49;8.60;1.00
8709;DHT22;4391;48.678;9.280;2024-01-25T02:24:17;8.60;1.00
8709;DHT22;4391;48.678;9.280;2024-01-25T02:26:45;8.60;1.00
8709;DHT22;4391;48.678;9.280;2024-01-25T02:29:12;8.70;99.90
8709;DHT22;4391;48.678;9.280;2024-01-25T02:31:38;8.80;1.00
8709;DHT22;4391;48.678;9.280;2024-01-25T02:34:05;8.90;1.00
8709;DHT22;4391;48.678;9.280;2024-01-25T02:36:32;9.00;1.00
8709;DHT22;4391;48.678;9.280;2024-01-25T02:38:59;9.00;1.00
8709;DHT22;4391;48.678;9.280;2024-01-25T02:41:29;9.00;1.00
8709;DHT22;4391;48.678;9.280;2024-01-25T02:43:55;9.00;1.00
8709;DHT22;4391;48.678;9.280;2024-01-25T02:46:22;9.00;1.00
8709;DHT22;4391;48.678;9.280;2024-01-25T02:48:49;9.00;99.90
8709;DHT22;4391;48.678;9.280;2024-01-25T02:51:16;9.00;99.90
8709;DHT22;4391;48.678;9.280;2024-01-25T02:53:43;9.00;1.00
8709;DHT22;4391;48.678;9.280;2024-01-25T02:56:09;9.00;99.90
8709;DHT22;4391;48.678;9.280;2024-01-25T02:58:38;9.00;1.00
8709;DHT22;4391;48.678;9.280;2024-01-25T03:01:04;9.10;1.00
8709;DHT22;4391;48.678;9.280;2024-01-25T03:03:31;9.10;1.00
8709;DHT22;4391;48.678;9.280;2024-01-25T03:05:58;9.10;1.00
8709;DHT22;4391;48.678;9.280;2024-01-25T03:08:25;9.10;1.00
8709;DHT22;4391;48.678;9.280;2024-01-25T03:10:51;9.10;4.60
8709;DHT22;4391;48.678;9.280;2024-01-25T03:13:18;9.00;99.90
8709;DHT22;4391;48.678;9.280;2024-01-25T03:15:46;9.00;99.90
8709;DHT22;4391;48.678;9.280;2024-01-25T03:18:13;9.00;1.00
8709;DHT22;4391;48.678;9.280;2024-01-25T03:20:40;8.90;48.90
8709;DHT22;4391;48.678;9.280;2024-01-25T03:23:07;8.90;99.90
8709;DHT22;4391;48.678;9.280;2024-01-25T03:25:34;8.90;1.00
8709;DHT22;4391;48.678;9.280;2024-01-25T03:28:01;8.90;99.90
8709;DHT22;4391;48.678;9.280;2024-01-25T03:30:28;8.90;99.90
8709;DHT22;4391;48.678;9.280;2024-01-25T03:32:56;8.80;99.90
8709;DHT22;4391;48.678;9.280;2024-01-25T03:35:22;8.80;1.00
8709;DHT22;4391;48.678;9.280;2024-01-25T03:37:50;8.70;1.00
8709;DHT22;4391;48.678;9.280;2024-01-25T03:40:17;8.70;1.00
8709;DHT22;4391;48.678;9.280;2024-01-25T03:42:44;8.80;1.00
8709;DHT22;4391;48.678;9.280;2024-01-25T03:45:10;8.70;99.90
8709;DHT22;4391;48.678;9.280;2024-01-25T03:47:37;8.70;1.00
8709;DHT22;4391;48.678;9.280;2024-01-25T03:50:06;8.70;1.00
8709;DHT22;4391;48.678;9.280;2024-01-25T03:52:33;8.70;1.00
8709;DHT22;4391;48.678;9.280;2024-01-25T03:54:59;8.60;95.00
8709;DHT22;4391;48.678;9.280;2024-01-25T03:59:56;8.60;1.00
8709;DHT22;4391;48.678;9.280;2024-01-25T04:02:23;8.60;99.90
8709;DHT22;4391;48.678;9.280;2024-01-25T04:04:50;8.60;63.50
8709;DHT22;4391;48.678;9.280;2024-01-25T04:07:18;8.60;1.00
8709;DHT22;4391;48.678;9.280;2024-01-25T04:09:45;8.60;57.40
8709;DHT22;4391;48.678;9.280;2024-01-25T04:12:12;8.60;1.00
8709;DHT22;4391;48.678;9.280;2024-01-25T04:14:39;8.60;1.00
8709;DHT22;4391;48.678;9.280;2024-01-25T04:17:06;8.60;1.00
8709;DHT22;4391;48.678;9.280;2024-01-25T04:19:32;8.60;99.90
8709;DHT22;4391;48.678;9.280;2024-01-25T04:21:59;8.50;99.90
8709;DHT22;4391;48.678;9.280;2024-01-25T04:24:28;8.60;33.70
8709;DHT22;4391;48.678;9.280;2024-01-25T04:26:54;8.50;1.00
8709;DHT22;4391;48.678;9.280;2024-01-25T04:29:22;8.50;99.90
8709;DHT22;4391;48.678;9.280;2024-01-25T04:31:49;8.50;1.00
8709;DHT22;4391;48.678;9.280;2024-01-25T04:34:16;8.50;99.90
8709;DHT22;4391;48.678;9.280;2024-01-25T04:36:43;8.40;1.00
8709;DHT22;4391;48.678;9.280;2024-01-25T04:39:10;8.50;1.00
8709;DHT22;4391;48.678;9.280;2024-01-25T04:41:38;8.40;1.00
8709;DHT22;4391;48.678;9.280;2024-01-25T04:44:05;8.40;1.00
8709;DHT22;4391;48.678;9.280;2024-01-25T04:46:32;8.40;99.90
8709;DHT22;4391;48.678;9.280;2024-01-25T04:49:02;8.40;99.90
8709;DHT22;4391;48.678;9.280;2024-01-25T04:51:29;8.40;1.00
8709;DHT22;4391;48.678;9.280;2024-01-25T04:53:56;8.40;99.90
8709;DHT22;4391;48.678;9.280;2024-01-25T04:56:23;8.50;99.90
8709;DHT22;4391;48.678;9.280;2024-01-25T04:58:51;8.40;99.90
8709;DHT22;4391;48.678;9.280;2024-01-25T05:01:18;8.40;1.00
8709;DHT22;4391;48.678;9.280;2024-01-25T05:03:45;8.40;1.00
8709;DHT22;4391;48.678;9.280;2024-01-25T05:06:12;8.40;1.00
8709;DHT22;4391;48.678;9.280;2024-01-25T05:08:39;8.30;99.90
8709;DHT22;4391;48.678;9.280;2024-01-25T05:11:07;8.30;99.90
8709;DHT22;4391;48.678;9.280;2024-01-25T05:13:35;8.40;1.00
8709;DHT22;4391;48.678;9.280;2024-01-25T05:16:03;8.40;1.00
8709;DHT22;4391;48.678;9.280;2024-01-25T05:18:30;8.30;1.00
8709;DHT22;4391;48.678;9.280;2024-01-25T05:20:57;8.40;99.90
8709;DHT22;4391;48.678;9.280;2024-01-25T05:23:24;8.40;1.00
8709;DHT22;4391;48.678;9.280;2024-01-25T05:25:51;8.40;99.90
8709;DHT22;4391;48.678;9.280;2024-01-25T05:28:18;8.40;99.90
8709;DHT22;4391;48.678;9.280;2024-01-25T05:30:45;8.30;99.90
8709;DHT22;4391;48.678;9.280;2024-01-25T05:33:13;8.30;1.00
8709;DHT22;4391;48.678;9.280;2024-01-25T05:35:40;8.20;1.00
8709;DHT22;4391;48.678;9.280;2024-01-25T05:38:07;8.10;1.00
8709;DHT22;4391;48.678;9.280;2024-01-25T05:40:33;8.00;99.90
8709;DHT22;4391;48.678;9.280;2024-01-25T05:43:00;8.00;99.90
8709;DHT22;4391;48.678;9.280;2024-01-25T05:45:27;7.90;99.90
8709;DHT22;4391;48.678;9.280;2024-01-25T05:47:54;7.90;99.90
8709;DHT22;4391;48.678;9.280;2024-01-25T05:50:22;7.80;1.00
8709;DHT22;4391;48.678;9.280;2024-01-25T05:52:49;7.70;1.00
8709;DHT22;4391;48.678;9.280;2024-01-25T05:55:16;7.60;99.90
8709;DHT22;4391;48.678;9.280;2024-01-25T05:57:43;7.60;99.90
8709;DHT22;4391;48.678;9.280;2024-01-25T06:00:12;7.50;99.90
8709;DHT22;4391;48.678;9.280;2024-01-25T06:02:41;7.40;1.00
8709;DHT22;4391;48.678;9.280;2024-01-25T06:05:09;7.30;99.90
8709;DHT22;4391;48.678;9.280;2024-01-25T06:07:37;7.10;99.90
8709;DHT22;4391;48.678;9.280;2024-01-25T06:10:05;7.10;99.90
8709;DHT22;4391;48.678;9.280;2024-01-25T06:12:32;7.00;99.90
8709;DHT22;4391;48.678;9.280;2024-01-25T06:14:59;6.90;99.90
8709;DHT22;4391;48.678;9.280;2024-01-25T06:17:25;6.80;1.00
8709;DHT22;4391;48.678;9.280;2024-01-25T06:19:52;6.60;1.00
8709;DHT22;4391;48.678;9.280;2024-01-25T06:22:19;6.60;1.00
8709;DHT22;4391;48.678;9.280;2024-01-25T06:24:47;6.40;1.00
8709;DHT22;4391;48.678;9.280;2024-01-25T06:27:14;6.50;1.00
8709;DHT22;4391;48.678;9.280;2024-01-25T06:29:41;6.40;1.00
8709;DHT22;4391;48.678;9.280;2024-01-25T06:32:08;6.30;1.00
8709;DHT22;4391;48.678;9.280;2024-01-25T06:34:36;6.30;1.00
8709;DHT22;4391;48.678;9.280;2024-01-25T06:37:03;6.30;1.00
8709;DHT22;4391;48.678;9.280;2024-01-25T06:39:30;6.20;1.00
8709;DHT22;4391;48.678;9.280;2024-01-25T06:41:59;6.20;1.00
8709;DHT22;4391;48.678;9.280;2024-01-25T06:44:26;6.10;1.00
8709;DHT22;4391;48.678;9.280;2024-01-25T06:46:52;6.10;1.00
8709;DHT22;4391;48.678;9.280;2024-01-25T06:49:19;6.00;1.00
8709;DHT22;4391;48.678;9.280;2024-01-25T06:51:46;6.10;1.00
8709;DHT22;4391;48.678;9.280;2024-01-25T06:54:13;6.10;1.00
8709;DHT22;4391;48.678;9.280;2024-01-25T06:56:40;6.30;1.00
8709;DHT22;4391;48.678;9.280;2024-01-25T06:59:08;6.30;1.00
8709;DHT22;4391;48.678;9.280;2024-01-25T07:01:35;6.30;1.00
8709;DHT22;4391;48.678;9.280;2024-01-25T07:04:02;6.30;1.00
8709;DHT22;4391;48.678;9.280;2024-01-25T07:06:32;6.20;1.00
8709;DHT22;4391;48.678;9.280;2024-01-25T07:08:59;6.20;1.00
8709;DHT22;4391;48.678;9.280;2024-01-25T07:11:26;6.20;1.00
8709;DHT22;4391;48.678;9.280;2024-01-25T07:13:53;6.30;1.00
8709;DHT22;4391;48.678;9.280;2024-01-25T07:16:21;6.30;1.00
8709;DHT22;4391;48.678;9.280;2024-01-25T07:18:49;6.20;1.00
8709;DHT22;4391;48.678;9.280;2024-01-25T07:21:16;6.10;1.00
8709;DHT22;4391;48.678;9.280;2024-01-25T07:23:43;6.00;1.00
8709;DHT22;4391;48.678;9.280;2024-01-25T07:26:09;5.80;7.20
8709;DHT22;4391;48.678;9.280;2024-01-25T07:28:42;5.70;17.10
8709;DHT22;4391;48.678;9.280;2024-01-25T07:31:09;5.70;20.90
8709;DHT22;4391;48.678;9.280;2024-01-25T07:33:37;5.60;27.90
8709;DHT22;4391;48.678;9.280;2024-01-25T07:36:05;5.60;37.00
8709;DHT22;4391;48.678;9.280;2024-01-25T07:38:33;5.70;29.00
8709;DHT22;4391;48.678;9.280;2024-01-25T07:41:00;5.70;22.30
8709;DHT22;4391;48.678;9.280;2024-01-25T07:43:26;5.80;18.40
8709;DHT22;4391;48.678;9.280;2024-01-25T07:45:53;5.90;9.80
8709;DHT22;4391;48.678;9.280;2024-01-25T07:48:20;5.90;10.00
8709;DHT22;4391;48.678;9.280;2024-01-25T07:50:48;6.00;4.00
8709;DHT22;4391;48.678;9.280;2024-01-25T07:53:15;6.10;1.00
8709;DHT22;4391;48.678;9.280;2024-01-25T07:55:43;6.20;1.00
8709;DHT22;4391;48.678;9.280;2024-01-25T07:58:11;6.30;1.00
8709;DHT22;4391;48.678;9.280;2024-01-25T08:00:37;6.30;1.00
8709;DHT22;4391;48.678;9.280;2024-01-25T08:03:05;6.50;1.00
8709;DHT22;4391;48.678;9.280;2024-01-25T08:05:32;6.60;1.00
8709;DHT22;4391;48.678;9.280;2024-01-25T08:08:00;6.60;1.00
8709;DHT22;4391;48.678;9.280;2024-01-25T08:10:27;6.70;1.00
8709;DHT22;4391;48.678;9.280;2024-01-25T08:12:54;6.70;1.00
8709;DHT22;4391;48.678;9.280;2024-01-25T08:15:21;6.80;1.00
8709;DHT22;4391;48.678;9.280;2024-01-25T08:17:51;6.80;1.00
8709;DHT22;4391;48.678;9.280;2024-01-25T08:20:18;6.80;1.00
8709;DHT22;4391;48.678;9.280;2024-01-25T08:22:44;7.00;1.00
8709;DHT22;4391;48.678;9.280;2024-01-25T08:25:13;7.20;1.00
8709;DHT22;4391;48.678;9.280;2024-01-25T08:27:41;7.30;99.90
8709;DHT22;4391;48.678;9.280;2024-01-25T08:30:09;7.40;99.90
8709;DHT22;4391;48.678;9.280;2024-01-25T08:32:36;7.60;61.50
8709;DHT22;4391;48.678;9.280;2024-01-25T08:35:06;7.70;1.00
8709;DHT22;4391;48.678;9.280;2024-01-25T08:37:36;7.80;99.90
8709;DHT22;4391;48.678;9.280;2024-01-25T08:40:04;7.90;99.90
8709;DHT22;4391;48.678;9.280;2024-01-25T08:42:33;8.10;99.90
8709;DHT22;4391;48.678;9.280;2024-01-25T08:45:00;8.30;99.90
8709;DHT22;4391;48.678;9.280;2024-01-25T08:47:27;8.50;99.90
8709;DHT22;4391;48.678;9.280;2024-01-25T08:49:54;8.80;99.90
8709;DHT22;4391;48.678;9.280;2024-01-25T08:52:20;8.90;1.00
8709;DHT22;4391;48.678;9.280;2024-01-25T08:54:47;9.10;99.90
8709;DHT22;4391;48.678;9.280;2024-01-25T08:57:14;9.40;99.90
8709;DHT22;4391;48.678;9.280;2024-01-25T08:59:43;9.60;1.00
8709;DHT22;4391;48.678;9.280;2024-01-25T09:02:10;9.90;1.00
8709;DHT22;4391;48.678;9.280;2024-01-25T09:04:37;10.00;1.00
8709;DHT22;4391;48.678;9.280;2024-01-25T09:07:06;10.20;99.90
8709;DHT22;4391;48.678;9.280;2024-01-25T09:09:32;10.30;99.90
8709;DHT22;4391;48.678;9.280;2024-01-25T09:11:59;10.50;99.90
8709;DHT22;4391;48.678;9.280;2024-01-25T09:14:26;10.60;99.90
8709;DHT22;4391;48.678;9.280;2024-01-25T09:16:55;10.70;99.90
8709;DHT22;4391;48.678;9.280;2024-01-25T09:19:22;10.80;99.90
8709;DHT22;4391;48.678;9.280;2024-01-25T09:21:48;11.10;65.50
8709;DHT22;4391;48.678;9.280;2024-01-25T09:24:16;11.20;1.00
8709;DHT22;4391;48.678;9.280;2024-01-25T09:26:43;11.30;1.00
8709;DHT22;4391;48.678;9.280;2024-01-25T09:29:09;11.40;6.50
8709;DHT22;4391;48.678;9.280;2024-01-25T09:31:36;11.50;1.00
8709;DHT22;4391;48.678;9.280;2024-01-25T09:34:05;11.70;1.00
8709;DHT22;4391;48.678;9.280;2024-01-25T09:36:32;11.50;1.00
8709;DHT22;4391;48.678;9.280;2024-01-25T09:38:59;11.80;1.00
8709;DHT22;4391;48.678;9.280;2024-01-25T09:41:26;12.00;1.00
8709;DHT22;4391;48.678;9.280;2024-01-25T09:43:53;12.20;1.00
8709;DHT22;4391;48.678;9.280;2024-01-25T09:46:20;12.40;1.00
8709;DHT22;4391;48.678;9.280;2024-01-25T09:48:48;12.40;1.00
8709;DHT22;4391;48.678;9.280;2024-01-25T09:51:17;12.50;1.00
8709;DHT22;4391;48.678;9.280;2024-01-25T09:53:45;12.70;1.00
8709;DHT22;4391;48.678;9.280;2024-01-25T09:56:18;13.00;1.00
8709;DHT22;4391;48.678;9.280;2024-01-25T09:58:46;13.30;1.00
8709;DHT22;4391;48.678;9.280;2024-01-25T10:01:14;13.70;1.00
8709;DHT22;4391;48.678;9.280;2024-01-25T10:03:42;13.70;1.00
8709;DHT22;4391;48.678;9.280;2024-01-25T10:06:11;13.40;1.00
8709;DHT22;4391;48.678;9.280;2024-01-25T10:08:39;13.10;1.00
8709;DHT22;4391;48.678;9.280;2024-01-25T10:11:06;12.70;1.00
8709;DHT22;4391;48.678;9.280;2024-01-25T10:13:40;12.40;1.00
8709;DHT22;4391;48.678;9.280;2024-01-25T10:16:10;12.10;1.00
8709;DHT22;4391;48.678;9.280;2024-01-25T10:18:39;12.00;1.00
8709;DHT22;4391;48.678;9.280;2024-01-25T10:21:06;11.80;1.00
8709;DHT22;4391;48.678;9.280;2024-01-25T10:23:33;11.60;1.00
8709;DHT22;4391;48.678;9.280;2024-01-25T10:26:01;11.50;1.00
8709;DHT22;4391;48.678;9.280;2024-01-25T10:28:29;11.50;1.00
8709;DHT22;4391;48.678;9.280;2024-01-25T10:30:57;11.70;1.00
8709;DHT22;4391;48.678;9.280;2024-01-25T10:33:24;12.00;1.00
8709;DHT22;4391;48.678;9.280;2024-01-25T10:35:54;12.00;1.00
8709;DHT22;4391;48.678;9.280;2024-01-25T10:38:25;12.00;1.00
8709;DHT22;4391;48.678;9.280;2024-01-25T10:40:53;12.00;1.00
8709;DHT22;4391;48.678;9.280;2024-01-25T10:43:22;11.90;1.00
8709;DHT22;4391;48.678;9.280;2024-01-25T10:45:49;11.70;1.00
8709;DHT22;4391;48.678;9.280;2024-01-25T10:48:21;11.60;1.00
8709;DHT22;4391;48.678;9.280;2024-01-25T10:50:48;11.70;1.00
8709;DHT22;4391;48.678;9.280;2024-01-25T10:53:16;11.90;1.00
8709;DHT22;4391;48.678;9.280;2024-01-25T10:55:43;12.20;1.00
8709;DHT22;4391;48.678;9.280;2024-01-25T10:58:13;12.70;1.00
8709;DHT22;4391;48.678;9.280;2024-01-25T11:00:41;13.20;1.00
8709;DHT22;4391;48.678;9.280;2024-01-25T11:03:08;13.90;99.90
8709;DHT22;4391;48.678;9.280;2024-01-25T11:05:35;13.90;99.90
8709;DHT22;4391;48.678;9.280;2024-01-25T11:08:03;14.30;99.90
8709;DHT22;4391;48.678;9.280;2024-01-25T11:10:35;15.00;99.90
8709;DHT22;4391;48.678;9.280;2024-01-25T11:13:03;15.10;99.90
8709;DHT22;4391;48.678;9.280;2024-01-25T11:15:36;15.30;99.90
8709;DHT22;4391;48.678;9.280;2024-01-25T11:18:08;15.90;99.90
8709;DHT22;4391;48.678;9.280;2024-01-25T11:20:35;16.60;99.90
8709;DHT22;4391;48.678;9.280;2024-01-25T11:23:04;16.80;99.90
8709;DHT22;4391;48.678;9.280;2024-01-25T11:25:32;17.30;99.90
8709;DHT22;4391;48.678;9.280;2024-01-25T11:28:00;16.60;99.90
8709;DHT22;4391;48.678;9.280;2024-01-25T11:30:29;15.80;99.90
8709;DHT22;4391;48.678;9.280;2024-01-25T11:32:56;15.00;99.90
8709;DHT22;4391;48.678;9.280;2024-01-25T11:35:24;14.20;99.90
8709;DHT22;4391;48.678;9.280;2024-01-25T11:37:52;13.80;99.90
8709;DHT22;4391;48.678;9.280;2024-01-25T11:40:20;13.50;99.90
8709;DHT22;4391;48.678;9.280;2024-01-25T11:42:48;13.40;99.90
8709;DHT22;4391;48.678;9.280;2024-01-25T11:45:16;13.50;99.90
8709;DHT22;4391;48.678;9.280;2024-01-25T11:47:44;14.10;99.90
8709;DHT22;4391;48.678;9.280;2024-01-25T11:50:14;15.20;99.90
8709;DHT22;4391;48.678;9.280;2024-01-25T11:52:42;16.00;99.90
8709;DHT22;4391;48.678;9.280;2024-01-25T11:55:10;16.10;99.90
8709;DHT22;4391;48.678;9.280;2024-01-25T11:57:38;16.30;99.90
8709;DHT22;4391;48.678;9.280;2024-01-25T12:00:08;16.10;99.90
8709;DHT22;4391;48.678;9.280;2024-01-25T12:02:36;15.60;99.90
8709;DHT22;4391;48.678;9.280;2024-01-25T12:05:05;15.30;99.90
8709;DHT22;4391;48.678;9.280;2024-01-25T12:07:32;15.00;99.90
8709;DHT22;4391;48.678;9.280;2024-01-25T12:10:04;14.70;99.90
8709;DHT22;4391;48.678;9.280;2024-01-25T12:12:31;15.70;99.90
8709;DHT22;4391;48.678;9.280;2024-01-25T12:14:58;16.60;99.90
8709;DHT22;4391;48.678;9.280;2024-01-25T12:17:27;18.10;99.90
8709;DHT22;4391;48.678;9.280;2024-01-25T12:19:55;19.30;99.90
8709;DHT22;4391;48.678;9.280;2024-01-25T12:22:22;20.30;99.90
8709;DHT22;4391;48.678;9.280;2024-01-25T12:24:52;20.30;99.90
8709;DHT22;4391;48.678;9.280;2024-01-25T12:27:21;21.00;99.90
8709;DHT22;4391;48.678;9.280;2024-01-25T12:29:49;22.10;99.90
8709;DHT22;4391;48.678;9.280;2024-01-25T12:32:16;22.30;99.90
8709;DHT22;4391;48.678;9.280;2024-01-25T12:34:52;22.50;99.90
8709;DHT22;4391;48.678;9.280;2024-01-25T12:37:19;22.10;99.90
8709;DHT22;4391;48.678;9.280;2024-01-25T12:39:46;22.20;99.90
8709;DHT22;4391;48.678;9.280;2024-01-25T12:42:13;22.70;99.90
8709;DHT22;4391;48.678;9.280;2024-01-25T12:44:41;22.60;99.90
8709;DHT22;4391;48.678;9.280;2024-01-25T12:47:09;22.20;99.90
8709;DHT22;4391;48.678;9.280;2024-01-25T12:49:39;21.50;99.90
8709;DHT22;4391;48.678;9.280;2024-01-25T12:52:06;21.60;99.90
8709;DHT22;4391;48.678;9.280;2024-01-25T12:54:33;21.40;99.90
8709;DHT22;4391;48.678;9.280;2024-01-25T12:57:00;20.00;99.90
8709;DHT22;4391;48.678;9.280;2024-01-25T12:59:27;18.50;99.90
8709;DHT22;4391;48.678;9.280;2024-01-25T13:01:55;17.10;99.90
8709;DHT22;4391;48.678;9.280;2024-01-25T13:04:23;17.00;99.90
8709;DHT22;4391;48.678;9.280;2024-01-25T13:06:52;18.30;99.90
8709;DHT22;4391;48.678;9.280;2024-01-25T13:09:20;19.50;99.90
8709;DHT22;4391;48.678;9.280;2024-01-25T13:11:47;19.60;99.90
8709;DHT22;4391;48.678;9.280;2024-01-25T13:14:14;19.80;99.90
8709;DHT22;4391;48.678;9.280;2024-01-25T13:16:41;20.20;99.90
8709;DHT22;4391;48.678;9.280;2024-01-25T13:19:10;21.30;99.90
8709;DHT22;4391;48.678;9.280;2024-01-25T13:21:38;22.10;99.90
8709;DHT22;4391;48.678;9.280;2024-01-25T13:24:06;22.40;99.90
8709;DHT22;4391;48.678;9.280;2024-01-25T13:26:35;22.80;99.90
8709;DHT22;4391;48.678;9.280;2024-01-25T13:29:02;23.20;99.90
8709;DHT22;4391;48.678;9.280;2024-01-25T13:31:29;23.60;99.90
8709;DHT22;4391;48.678;9.280;2024-01-25T13:33:56;23.90;99.90
8709;DHT22;4391;48.678;9.280;2024-01-25T13:36:24;24.10;99.90
8709;DHT22;4391;48.678;9.280;2024-01-25T13:38:51;23.90;99.90
8709;DHT22;4391;48.678;9.280;2024-01-25T13:41:18;23.40;99.90
8709;DHT22;4391;48.678;9.280;2024-01-25T13:43:45;23.00;99.90
8709;DHT22;4391;48.678;9.280;2024-01-25T13:46:12;22.20;99.90
8709;DHT22;4391;48.678;9.280;2024-01-25T13:48:39;21.70;99.90
8709;DHT22;4391;48.678;9.280;2024-01-25T13:51:06;20.70;99.90
8709;DHT22;4391;48.678;9.280;2024-01-25T13:53:37;19.70;99.90
8709;DHT22;4391;48.678;9.280;2024-01-25T13:56:05;19.80;99.90
8709;DHT22;4391;48.678;9.280;2024-01-25T13:58:31;19.40;99.90
8709;DHT22;4391;48.678;9.280;2024-01-25T14:00:58;18.90;99.90
8709;DHT22;4391;48.678;9.280;2024-01-25T14:03:26;18.60;99.90
8709;DHT22;4391;48.678;9.280;2024-01-25T14:05:53;18.40;99.90
8709;DHT22;4391;48.678;9.280;2024-01-25T14:08:22;18.20;99.90
8709;DHT22;4391;48.678;9.280;2024-01-25T14:10:50;18.00;99.90
8709;DHT22;4391;48.678;9.280;2024-01-25T14:13:17;17.70;99.90
8709;DHT22;4391;48.678;9.280;2024-01-25T14:15:44;17.40;99.90
8709;DHT22;4391;48.678;9.280;2024-01-25T14:18:11;16.70;99.90
8709;DHT22;4391;48.678;9.280;2024-01-25T14:20:38;16.30;99.90
8709;DHT22;4391;48.678;9.280;2024-01-25T14:23:05;15.90;99.90
8709;DHT22;4391;48.678;9.280;2024-01-25T14:25:32;15.60;99.90
8709;DHT22;4391;48.678;9.280;2024-01-25T14:28:00;15.10;99.90
8709;DHT22;4391;48.678;9.280;2024-01-25T14:30:27;14.90;99.90
8709;DHT22;4391;48.678;9.280;2024-01-25T14:32:55;14.50;99.90
8709;DHT22;4391;48.678;9.280;2024-01-25T14:35:22;14.20;99.90
8709;DHT22;4391;48.678;9.280;2024-01-25T14:37:53;13.80;99.90
8709;DHT22;4391;48.678;9.280;2024-01-25T14:40:20;13.30;99.90
8709;DHT22;4391;48.678;9.280;2024-01-25T14:42:47;13.10;99.90
8709;DHT22;4391;48.678;9.280;2024-01-25T14:45:15;12.80;99.90
8709;DHT22;4391;48.678;9.280;2024-01-25T14:47:42;12.50;99.90
8709;DHT22;4391;48.678;9.280;2024-01-25T14:50:09;12.30;99.90
8709;DHT22;4391;48.678;9.280;2024-01-25T14:52:36;12.10;99.90
8709;DHT22;4391;48.678;9.280;2024-01-25T14:55:04;11.90;99.90
8709;DHT22;4391;48.678;9.280;2024-01-25T14:57:31;11.70;99.90
8709;DHT22;4391;48.678;9.280;2024-01-25T14:59:57;11.70;99.90
8709;DHT22;4391;48.678;9.280;2024-01-25T15:02:26;11.80;99.90
8709;DHT22;4391;48.678;9.280;2024-01-25T15:04:53;11.60;99.90
8709;DHT22;4391;48.678;9.280;2024-01-25T15:07:19;11.50;99.90
8709;DHT22;4391;48.678;9.280;2024-01-25T15:09:47;11.50;99.90
8709;DHT22;4391;48.678;9.280;2024-01-25T15:12:15;11.40;99.90
8709;DHT22;4391;48.678;9.280;2024-01-25T15:14:43;11.30;99.90
8709;DHT22;4391;48.678;9.280;2024-01-25T15:17:10;11.30;99.90
8709;DHT22;4391;48.678;9.280;2024-01-25T15:19:38;11.20;1.00
8709;DHT22;4391;48.678;9.280;2024-01-25T15:22:05;11.10;1.00
8709;DHT22;4391;48.678;9.280;2024-01-25T15:24:33;11.00;1.00
8709;DHT22;4391;48.678;9.280;2024-01-25T15:27:00;10.90;1.00
8709;DHT22;4391;48.678;9.280;2024-01-25T15:29:31;10.70;1.00
8709;DHT22;4391;48.678;9.280;2024-01-25T15:32:01;10.60;1.00
8709;DHT22;4391;48.678;9.280;2024-01-25T15:34:28;10.60;1.00
8709;DHT22;4391;48.678;9.280;2024-01-25T15:36:56;10.50;28.40
8709;DHT22;4391;48.678;9.280;2024-01-25T15:39:23;10.40;82.90
8709;DHT22;4391;48.678;9.280;2024-01-25T15:41:50;10.30;99.90
8709;DHT22;4391;48.678;9.280;2024-01-25T15:44:18;10.40;99.90
8709;DHT22;4391;48.678;9.280;2024-01-25T15:46:46;10.40;99.90
8709;DHT22;4391;48.678;9.280;2024-01-25T15:49:12;10.30;99.90
8709;DHT22;4391;48.678;9.280;2024-01-25T15:51:41;10.30;99.90
8709;DHT22;4391;48.678;9.280;2024-01-25T15:54:09;10.30;99.90
8709;DHT22;4391;48.678;9.280;2024-01-25T15:56:36;10.20;99.90
8709;DHT22;4391;48.678;9.280;2024-01-25T15:59:03;10.20;99.90
8709;DHT22;4391;48.678;9.280;2024-01-25T16:01:29;10.10;1.00
8709;DHT22;4391;48.678;9.280;2024-01-25T16:03:56;10.10;99.90
8709;DHT22;4391;48.678;9.280;2024-01-25T16:06:23;10.10;1.00
8709;DHT22;4391;48.678;9.280;2024-01-25T16:08:50;10.00;1.00
8709;DHT22;4391;48.678;9.280;2024-01-25T16:11:19;10.00;99.90
8709;DHT22;4391;48.678;9.280;2024-01-25T16:13:47;10.00;28.40
8709;DHT22;4391;48.678;9.280;2024-01-25T16:16:14;9.90;99.90
8709;DHT22;4391;48.678;9.280;2024-01-25T16:18:40;10.00;99.90
8709;DHT22;4391;48.678;9.280;2024-01-25T16:21:08;9.80;1.00